Time,TemperatureF,DewpointF,PressureIn,WindDirection,WindDirectionDegrees,WindSpeedMPH,WindSpeedGustMPH,Humidity,HourlyPrecipIn,Conditions,Clouds,dailyrainin,SolarRadiationWatts/m^2,SoftwareType,DateUTC
2013-02-13 00:02:00,30.6,20.0,30.42,NNW,330,0.0,-999.0,64,-99.99,,,0.00,0,weatherlink.com 1.10,2013-02-13 08:02:00,
2013-02-13 00:17:00,30.0,19.0,30.41,NNW,330,0.0,-999.0,65,-99.99,,,0.00,0,weatherlink.com 1.10,2013-02-13 08:17:00,
2013-02-13 00:33:00,29.8,20.0,30.41,NNW,330,0.0,-999.0,67,-99.99,,,0.00,0,weatherlink.com 1.10,2013-02-13 08:33:00,
2013-02-13 00:48:00,29.6,20.0,30.41,NNW,330,0.0,-999.0,67,-99.99,,,0.00,0,weatherlink.com 1.10,2013-02-13 08:48:00,
2013-02-13 01:03:00,29.1,19.0,30.41,NNW,330,0.0,-999.0,67,-99.99,,,0.00,0,weatherlink.com 1.10,2013-02-13 09:03:00,
2013-02-13 01:18:00,28.6,19.0,30.41,NNW,330,0.0,-999.0,68,-99.99,,,0.00,0,weatherlink.com 1.10,2013-02-13 09:18:00,
2013-02-13 01:33:00,28.1,19.0,30.41,NNW,330,0.0,-999.0,69,-99.99,,,0.00,0,weatherlink.com 1.10,2013-02-13 09:33:00,
2013-02-13 01:48:00,27.9,20.0,30.41,NNW,330,0.0,-999.0,71,-99.99,,,0.00,0,weatherlink.com 1.10,2013-02-13 09:48:00,
2013-02-13 02:03:00,27.8,20.0,30.41,NNW,330,0.0,-999.0,71,-99.99,,,0.00,0,weatherlink.com 1.10,2013-02-13 10:03:00,
2013-02-13 02:19:00,27.5,20.0,30.40,NNW,330,0.0,-999.0,72,-99.99,,,0.00,0,weatherlink.com 1.10,2013-02-13 10:19:00,
2013-02-13 02:33:00,27.3,20.0,30.40,NNW,330,0.0,-999.0,73,-99.99,,,0.00,0,weatherlink.com 1.10,2013-02-13 10:33:00,
2013-02-13 02:48:00,27.2,20.0,30.39,NNW,330,0.0,-999.0,73,-99.99,,,0.00,0,weatherlink.com 1.10,2013-02-13 10:48:00,
2013-02-13 03:03:00,27.1,20.0,30.39,NNW,330,0.0,-999.0,74,-99.99,,,0.00,0,weatherlink.com 1.10,2013-02-13 11:03:00,
2013-02-13 03:19:00,26.9,20.0,30.38,NNW,330,0.0,-999.0,74,-99.99,,,0.00,0,weatherlink.com 1.10,2013-02-13 11:19:00,
2013-02-13 03:33:00,26.5,19.0,30.38,NNW,330,0.0,-999.0,74,-99.99,,,0.00,0,weatherlink.com 1.10,2013-02-13 11:33:00,
2013-02-13 03:48:00,26.3,19.0,30.39,NNW,330,0.0,-999.0,75,-99.99,,,0.00,0,weatherlink.com 1.10,2013-02-13 11:48:00,
2013-02-13 04:03:00,26.3,19.0,30.39,NNW,330,0.0,-999.0,75,-99.99,,,0.00,0,weatherlink.com 1.10,2013-02-13 12:03:00,
2013-02-13 04:18:00,26.2,20.0,30.38,NNW,330,0.0,-999.0,76,-99.99,,,0.00,0,weatherlink.com 1.10,2013-02-13 12:18:00,
2013-02-13 04:33:00,25.9,19.0,30.38,NNW,330,0.0,-999.0,75,-99.99,,,0.00,0,weatherlink.com 1.10,2013-02-13 12:33:00,
2013-02-13 04:48:00,25.6,19.0,30.38,NNW,330,0.0,-999.0,75,-99.99,,,0.00,0,weatherlink.com 1.10,2013-02-13 12:48:00,
2013-02-13 05:18:00,25.3,19.0,30.38,NNW,330,0.0,-999.0,76,-99.99,,,0.00,0,weatherlink.com 1.10,2013-02-13 13:18:00,
2013-02-13 05:33:00,25.2,19.0,30.38,NNW,330,0.0,-999.0,77,-99.99,,,0.00,0,weatherlink.com 1.10,2013-02-13 13:33:00,
2013-02-13 05:48:00,25.5,19.0,30.38,NNW,330,0.0,-999.0,77,-99.99,,,0.00,0,weatherlink.com 1.10,2013-02-13 13:48:00,
2013-02-13 06:03:00,25.5,19.0,30.39,NNW,330,0.0,-999.0,77,-99.99,,,0.00,0,weatherlink.com 1.10,2013-02-13 14:03:00,
2013-02-13 06:18:00,25.3,19.0,30.39,NNW,330,0.0,-999.0,77,-99.99,,,0.00,0,weatherlink.com 1.10,2013-02-13 14:18:00,
2013-02-13 06:33:00,25.3,19.0,30.39,NNW,330,0.0,-999.0,78,-99.99,,,0.00,0,weatherlink.com 1.10,2013-02-13 14:33:00,
2013-02-13 06:48:00,25.0,19.0,30.39,NNW,330,0.0,-999.0,77,-99.99,,,0.00,7,weatherlink.com 1.10,2013-02-13 14:48:00,
2013-02-13 07:03:00,24.8,19.0,30.39,NNW,330,0.0,-999.0,77,-99.99,,,0.00,14,weatherlink.com 1.10,2013-02-13 15:03:00,
2013-02-13 07:18:00,25.1,19.0,30.40,NNW,330,0.0,-999.0,78,-99.99,,,0.00,19,weatherlink.com 1.10,2013-02-13 15:18:00,
2013-02-13 07:34:00,26.4,21.0,30.40,NNW,330,0.0,-999.0,80,-99.99,,,0.00,23,weatherlink.com 1.10,2013-02-13 15:34:00,
2013-02-13 07:48:00,27.9,23.0,30.40,NW,325,0.0,-999.0,80,-99.99,,,0.00,156,weatherlink.com 1.10,2013-02-13 15:48:00,
2013-02-13 08:04:00,29.1,24.0,30.40,NW,325,0.0,-999.0,81,-99.99,,,0.00,216,weatherlink.com 1.10,2013-02-13 16:04:00,
2013-02-13 08:18:00,32.1,27.0,30.40,NNW,338,0.0,-999.0,82,-99.99,,,0.00,230,weatherlink.com 1.10,2013-02-13 16:18:00,
2013-02-13 08:33:00,34.5,29.0,30.40,North,355,0.0,-999.0,80,-99.99,,,0.00,39,weatherlink.com 1.10,2013-02-13 16:33:00,
2013-02-13 08:49:00,36.5,29.0,30.40,North,355,0.0,-999.0,75,-99.99,,,0.00,118,weatherlink.com 1.10,2013-02-13 16:49:00,
2013-02-13 09:04:00,38.0,29.0,30.39,North,355,0.0,-999.0,69,-99.99,,,0.00,417,weatherlink.com 1.10,2013-02-13 17:04:00,
2013-02-13 09:19:00,40.3,28.0,30.39,North,355,0.0,-999.0,63,-99.99,,,0.00,464,weatherlink.com 1.10,2013-02-13 17:19:00,
2013-02-13 09:34:00,43.4,29.0,30.39,North,355,0.0,-999.0,57,-99.99,,,0.00,501,weatherlink.com 1.10,2013-02-13 17:34:00,
2013-02-13 09:49:00,46.7,29.0,30.38,NNW,344,0.0,-999.0,50,-99.99,,,0.00,540,weatherlink.com 1.10,2013-02-13 17:49:00,
2013-02-13 10:04:00,52.4,18.0,30.38,NE,49,0.0,-999.0,26,-99.99,,,0.00,573,weatherlink.com 1.10,2013-02-13 18:04:00,
2013-02-13 10:19:00,55.2,16.0,30.38,ENE,69,6.0,-999.0,21,-99.99,,,0.00,601,weatherlink.com 1.10,2013-02-13 18:19:00,
2013-02-13 10:34:00,55.7,14.0,30.38,ENE,75,6.0,-999.0,19,-99.99,,,0.00,626,weatherlink.com 1.10,2013-02-13 18:34:00,
2013-02-13 10:49:00,56.2,15.0,30.38,East,94,4.0,-999.0,20,-99.99,,,0.00,647,weatherlink.com 1.10,2013-02-13 18:49:00,
2013-02-13 11:04:00,57.0,15.0,30.37,ESE,108,0.0,-999.0,19,-99.99,,,0.00,668,weatherlink.com 1.10,2013-02-13 19:04:00,
2013-02-13 11:19:00,57.7,15.0,30.36,ENE,76,6.0,-999.0,19,-99.99,,,0.00,682,weatherlink.com 1.10,2013-02-13 19:19:00,
2013-02-13 11:35:00,57.8,14.0,30.36,East,83,0.0,-999.0,18,-99.99,,,0.00,693,weatherlink.com 1.10,2013-02-13 19:35:00,
2013-02-13 11:49:00,58.7,15.0,30.35,ENE,78,3.0,-999.0,18,-99.99,,,0.00,698,weatherlink.com 1.10,2013-02-13 19:49:00,
2013-02-13 12:04:00,58.8,15.0,30.34,ENE,77,4.0,-999.0,18,-99.99,,,0.00,700,weatherlink.com 1.10,2013-02-13 20:04:00,
2013-02-13 12:20:00,58.5,15.0,30.34,ENE,77,10.0,-999.0,18,-99.99,,,0.00,700,weatherlink.com 1.10,2013-02-13 20:20:00,
2013-02-13 12:34:00,59.0,15.0,30.33,NE,42,4.0,-999.0,18,-99.99,,,0.00,691,weatherlink.com 1.10,2013-02-13 20:34:00,
2013-02-13 12:50:00,59.9,15.0,30.32,East,86,2.0,-999.0,17,-99.99,,,0.00,684,weatherlink.com 1.10,2013-02-13 20:50:00,
2013-02-13 13:05:00,61.3,15.0,30.32,East,98,0.0,-999.0,16,-99.99,,,0.00,670,weatherlink.com 1.10,2013-02-13 21:05:00,
2013-02-13 13:20:00,62.5,21.0,30.31,East,91,0.0,-999.0,20,-99.99,,,0.00,654,weatherlink.com 1.10,2013-02-13 21:20:00,
2013-02-13 13:35:00,61.8,26.0,30.30,NNW,335,4.0,-999.0,26,-99.99,,,0.00,628,weatherlink.com 1.10,2013-02-13 21:35:00,
2013-02-13 13:50:00,59.9,27.0,30.30,NNW,337,3.0,-999.0,29,-99.99,,,0.00,598,weatherlink.com 1.10,2013-02-13 21:50:00,
2013-02-13 14:05:00,59.1,28.0,30.29,NNW,329,2.0,-999.0,31,-99.99,,,0.00,573,weatherlink.com 1.10,2013-02-13 22:05:00,
2013-02-13 14:20:00,58.2,28.0,30.29,NNW,336,11.0,-999.0,32,-99.99,,,0.00,541,weatherlink.com 1.10,2013-02-13 22:20:00,
2013-02-13 14:35:00,57.0,29.0,30.28,NNW,336,3.0,-999.0,34,-99.99,,,0.00,503,weatherlink.com 1.10,2013-02-13 22:35:00,
2013-02-13 14:50:00,56.1,29.0,30.28,NNW,331,7.0,-999.0,36,-99.99,,,0.00,466,weatherlink.com 1.10,2013-02-13 22:50:00,
2013-02-13 15:05:00,55.1,30.0,30.29,NNW,334,6.0,-999.0,39,-99.99,,,0.00,422,weatherlink.com 1.10,2013-02-13 23:05:00,
2013-02-13 15:20:00,54.2,31.0,30.29,NNW,331,6.0,-999.0,41,-99.99,,,0.00,378,weatherlink.com 1.10,2013-02-13 23:20:00,
2013-02-13 15:35:00,53.7,31.0,30.29,NNW,333,6.0,-999.0,42,-99.99,,,0.00,330,weatherlink.com 1.10,2013-02-13 23:35:00,
2013-02-13 15:50:00,51.7,31.0,30.28,NNW,331,3.0,-999.0,46,-99.99,,,0.00,283,weatherlink.com 1.10,2013-02-13 23:50:00,
2013-02-13 16:05:00,51.2,31.0,30.28,NNW,331,7.0,-999.0,47,-99.99,,,0.00,234,weatherlink.com 1.10,2013-02-14 00:05:00,
2013-02-13 16:20:00,50.9,31.0,30.28,NNW,328,3.0,-999.0,47,-99.99,,,0.00,185,weatherlink.com 1.10,2013-02-14 00:20:00,
2013-02-13 16:35:00,49.8,31.0,30.28,NNW,333,7.0,-999.0,48,-99.99,,,0.00,130,weatherlink.com 1.10,2013-02-14 00:35:00,
2013-02-13 16:50:00,48.8,30.0,30.28,NNW,327,4.0,-999.0,49,-99.99,,,0.00,76,weatherlink.com 1.10,2013-02-14 00:50:00,
2013-02-13 17:05:00,47.7,30.0,30.28,NNW,328,5.0,-999.0,51,-99.99,,,0.00,37,weatherlink.com 1.10,2013-02-14 01:05:00,
2013-02-13 17:20:00,46.5,30.0,30.28,NNW,328,1.0,-999.0,54,-99.99,,,0.00,14,weatherlink.com 1.10,2013-02-14 01:20:00,
2013-02-13 17:35:00,45.5,30.0,30.29,NNW,329,1.0,-999.0,55,-99.99,,,0.00,5,weatherlink.com 1.10,2013-02-14 01:35:00,
2013-02-13 17:50:00,44.5,30.0,30.29,NNW,329,2.0,-999.0,57,-99.99,,,0.00,0,weatherlink.com 1.10,2013-02-14 01:50:00,
2013-02-13 18:05:00,43.3,30.0,30.30,NNW,329,0.0,-999.0,60,-99.99,,,0.00,0,weatherlink.com 1.10,2013-02-14 02:05:00,
2013-02-13 18:20:00,42.6,30.0,30.30,NNW,329,0.0,-999.0,61,-99.99,,,0.00,0,weatherlink.com 1.10,2013-02-14 02:20:00,
2013-02-13 18:35:00,42.3,30.0,30.30,NNW,329,0.0,-999.0,63,-99.99,,,0.00,0,weatherlink.com 1.10,2013-02-14 02:35:00,
2013-02-13 18:50:00,41.9,31.0,30.30,NNW,329,0.0,-999.0,65,-99.99,,,0.00,0,weatherlink.com 1.10,2013-02-14 02:50:00,
2013-02-13 19:05:00,41.6,31.0,30.31,NNW,329,0.0,-999.0,65,-99.99,,,0.00,0,weatherlink.com 1.10,2013-02-14 03:05:00,
2013-02-13 19:20:00,40.8,31.0,30.31,NNW,329,0.0,-999.0,67,-99.99,,,0.00,0,weatherlink.com 1.10,2013-02-14 03:20:00,
2013-02-13 19:35:00,39.6,29.0,30.30,NNW,329,0.0,-999.0,67,-99.99,,,0.00,0,weatherlink.com 1.10,2013-02-14 03:35:00,
2013-02-13 19:50:00,38.1,28.0,30.31,NNW,329,0.0,-999.0,67,-99.99,,,0.00,0,weatherlink.com 1.10,2013-02-14 03:50:00,
2013-02-13 20:05:00,36.6,27.0,30.31,NNW,329,0.0,-999.0,68,-99.99,,,0.00,0,weatherlink.com 1.10,2013-02-14 04:05:00,
2013-02-13 20:20:00,35.6,27.0,30.31,NNW,329,0.0,-999.0,70,-99.99,,,0.00,0,weatherlink.com 1.10,2013-02-14 04:20:00,
2013-02-13 21:05:00,34.1,26.0,30.32,NNW,329,0.0,-999.0,73,-99.99,,,0.00,0,weatherlink.com 1.10,2013-02-14 05:05:00,
2013-02-13 21:20:00,33.6,26.0,30.32,NNW,329,0.0,-999.0,74,-99.99,,,0.00,0,weatherlink.com 1.10,2013-02-14 05:20:00,
2013-02-13 21:35:00,33.3,26.0,30.32,NNW,329,0.0,-999.0,75,-99.99,,,0.00,0,weatherlink.com 1.10,2013-02-14 05:35:00,
2013-02-13 21:50:00,33.0,26.0,30.32,NNW,329,0.0,-999.0,75,-99.99,,,0.00,0,weatherlink.com 1.10,2013-02-14 05:50:00,
2013-02-13 22:05:00,32.3,25.0,30.32,NNW,329,0.0,-999.0,74,-99.99,,,0.00,0,weatherlink.com 1.10,2013-02-14 06:05:00,
2013-02-13 22:20:00,31.9,25.0,30.32,NNW,329,0.0,-999.0,75,-99.99,,,0.00,0,weatherlink.com 1.10,2013-02-14 06:20:00,
2013-02-13 22:35:00,31.6,25.0,30.32,NNW,329,0.0,-999.0,76,-99.99,,,0.00,0,weatherlink.com 1.10,2013-02-14 06:35:00,
2013-02-13 22:50:00,31.3,25.0,30.32,NNW,329,0.0,-999.0,76,-99.99,,,0.00,0,weatherlink.com 1.10,2013-02-14 06:50:00,
2013-02-13 23:05:00,31.0,25.0,30.32,NNW,329,0.0,-999.0,77,-99.99,,,0.00,0,weatherlink.com 1.10,2013-02-14 07:05:00,
2013-02-13 23:20:00,30.7,24.0,30.32,NNW,329,0.0,-999.0,77,-99.99,,,0.00,0,weatherlink.com 1.10,2013-02-14 07:20:00,
2013-02-13 23:35:00,30.2,24.0,30.32,NNW,329,0.0,-999.0,76,-99.99,,,0.00,0,weatherlink.com 1.10,2013-02-14 07:35:00,
2013-02-13 23:50:00,30.2,24.0,30.32,NNW,329,0.0,-999.0,77,-99.99,,,0.00,0,weatherlink.com 1.10,2013-02-14 07:50:00,